sensor_id;sensor_type;location;lat;lon;timestamp;temperature;humidity
9193;DHT22;4631;49.296;10.560;2023-09-18T00:01:50;18.40;99.90
9193;DHT22;4631;49.296;10.560;2023-09-18T00:04:18;18.40;99.90
9193;DHT22;4631;49.296;10.560;2023-09-18T00:06:45;18.40;99.90
9193;DHT22;4631;49.296;10.560;2023-09-18T00:09:12;18.30;99.90
9193;DHT22;4631;49.296;10.560;2023-09-18T00:11:39;18.30;99.90
9193;DHT22;4631;49.296;10.560;2023-09-18T00:14:06;18.30;99.90
9193;DHT22;4631;49.296;10.560;2023-09-18T00:16:32;18.30;99.90
9193;DHT22;4631;49.296;10.560;2023-09-18T00:18:59;18.20;99.90
9193;DHT22;4631;49.296;10.560;2023-09-18T00:21:27;18.20;99.90
9193;DHT22;4631;49.296;10.560;2023-09-18T00:23:55;18.20;99.90
9193;DHT22;4631;49.296;10.560;2023-09-18T00:26:23;18.10;99.90
9193;DHT22;4631;49.296;10.560;2023-09-18T00:28:49;18.10;99.90
9193;DHT22;4631;49.296;10.560;2023-09-18T00:31:16;18.10;99.90
9193;DHT22;4631;49.296;10.560;2023-09-18T00:33:43;18.10;99.90
9193;DHT22;4631;49.296;10.560;2023-09-18T00:36:09;18.10;99.90
9193;DHT22;4631;49.296;10.560;2023-09-18T00:38:37;18.00;99.90
9193;DHT22;4631;49.296;10.560;2023-09-18T00:41:04;18.00;99.90
9193;DHT22;4631;49.296;10.560;2023-09-18T00:43:31;18.00;99.90
9193;DHT22;4631;49.296;10.560;2023-09-18T00:45:58;17.90;99.90
9193;DHT22;4631;49.296;10.560;2023-09-18T00:48:24;17.90;99.90
9193;DHT22;4631;49.296;10.560;2023-09-18T00:50:53;17.90;99.90
9193;DHT22;4631;49.296;10.560;2023-09-18T00:53:21;17.90;99.90
9193;DHT22;4631;49.296;10.560;2023-09-18T00:55:49;17.80;99.90
9193;DHT22;4631;49.296;10.560;2023-09-18T00:58:16;17.80;99.90
9193;DHT22;4631;49.296;10.560;2023-09-18T01:00:44;17.80;99.90
9193;DHT22;4631;49.296;10.560;2023-09-18T01:03:10;17.80;99.90
9193;DHT22;4631;49.296;10.560;2023-09-18T01:05:37;17.80;99.90
9193;DHT22;4631;49.296;10.560;2023-09-18T01:08:04;17.80;99.90
9193;DHT22;4631;49.296;10.560;2023-09-18T01:10:32;17.70;99.90
9193;DHT22;4631;49.296;10.560;2023-09-18T01:13:02;17.70;99.90
9193;DHT22;4631;49.296;10.560;2023-09-18T01:15:32;17.70;99.90
9193;DHT22;4631;49.296;10.560;2023-09-18T01:18:00;17.60;99.90
9193;DHT22;4631;49.296;10.560;2023-09-18T01:20:28;17.60;99.90
9193;DHT22;4631;49.296;10.560;2023-09-18T01:22:56;17.60;99.90
9193;DHT22;4631;49.296;10.560;2023-09-18T01:25:23;17.60;99.90
9193;DHT22;4631;49.296;10.560;2023-09-18T01:27:49;17.50;99.90
9193;DHT22;4631;49.296;10.560;2023-09-18T01:30:17;17.50;99.90
9193;DHT22;4631;49.296;10.560;2023-09-18T01:32:43;17.50;99.90
9193;DHT22;4631;49.296;10.560;2023-09-18T01:35:11;17.50;99.90
9193;DHT22;4631;49.296;10.560;2023-09-18T01:37:38;17.40;99.90
9193;DHT22;4631;49.296;10.560;2023-09-18T01:40:07;17.40;99.90
9193;DHT22;4631;49.296;10.560;2023-09-18T01:42:34;17.40;99.90
9193;DHT22;4631;49.296;10.560;2023-09-18T01:45:01;17.40;99.90
9193;DHT22;4631;49.296;10.560;2023-09-18T01:47:29;17.40;99.90
9193;DHT22;4631;49.296;10.560;2023-09-18T01:49:56;17.40;99.90
9193;DHT22;4631;49.296;10.560;2023-09-18T01:52:23;17.30;99.90
9193;DHT22;4631;49.296;10.560;2023-09-18T01:54:50;17.30;99.90
9193;DHT22;4631;49.296;10.560;2023-09-18T01:57:18;17.30;99.90
9193;DHT22;4631;49.296;10.560;2023-09-18T01:59:44;17.20;99.90
9193;DHT22;4631;49.296;10.560;2023-09-18T02:02:11;17.20;99.90
9193;DHT22;4631;49.296;10.560;2023-09-18T02:04:37;17.20;99.90
9193;DHT22;4631;49.296;10.560;2023-09-18T02:07:05;17.20;99.90
9193;DHT22;4631;49.296;10.560;2023-09-18T02:09:32;17.20;99.90
9193;DHT22;4631;49.296;10.560;2023-09-18T02:11:58;17.20;99.90
9193;DHT22;4631;49.296;10.560;2023-09-18T02:14:26;17.10;99.90
9193;DHT22;4631;49.296;10.560;2023-09-18T02:16:55;17.10;99.90
9193;DHT22;4631;49.296;10.560;2023-09-18T02:19:22;17.10;99.90
9193;DHT22;4631;49.296;10.560;2023-09-18T02:21:49;17.00;99.90
9193;DHT22;4631;49.296;10.560;2023-09-18T02:24:15;17.00;99.90
9193;DHT22;4631;49.296;10.560;2023-09-18T02:26:42;17.00;99.90
9193;DHT22;4631;49.296;10.560;2023-09-18T02:29:10;16.90;99.90
9193;DHT22;4631;49.296;10.560;2023-09-18T02:31:38;16.90;99.90
9193;DHT22;4631;49.296;10.560;2023-09-18T02:34:05;16.90;99.90
9193;DHT22;4631;49.296;10.560;2023-09-18T02:36:32;16.90;99.90
9193;DHT22;4631;49.296;10.560;2023-09-18T02:38:59;16.80;99.90
9193;DHT22;4631;49.296;10.560;2023-09-18T02:41:25;16.80;99.90
9193;DHT22;4631;49.296;10.560;2023-09-18T02:43:52;16.80;99.90
9193;DHT22;4631;49.296;10.560;2023-09-18T02:46:19;16.70;99.90
9193;DHT22;4631;49.296;10.560;2023-09-18T02:48:46;16.80;99.90
9193;DHT22;4631;49.296;10.560;2023-09-18T02:51:13;16.70;99.90
9193;DHT22;4631;49.296;10.560;2023-09-18T02:53:40;16.70;99.90
9193;DHT22;4631;49.296;10.560;2023-09-18T02:56:06;16.70;99.90
9193;DHT22;4631;49.296;10.560;2023-09-18T02:58:33;16.70;99.90
9193;DHT22;4631;49.296;10.560;2023-09-18T03:01:00;16.70;99.90
9193;DHT22;4631;49.296;10.560;2023-09-18T03:03:29;16.70;99.90
9193;DHT22;4631;49.296;10.560;2023-09-18T03:06:01;16.70;99.90
9193;DHT22;4631;49.296;10.560;2023-09-18T03:08:28;16.70;99.90
9193;DHT22;4631;49.296;10.560;2023-09-18T03:10:55;16.70;99.90
9193;DHT22;4631;49.296;10.560;2023-09-18T03:13:21;16.70;99.90
9193;DHT22;4631;49.296;10.560;2023-09-18T03:15:48;16.70;99.90
9193;DHT22;4631;49.296;10.560;2023-09-18T03:18:15;16.70;99.90
9193;DHT22;4631;49.296;10.560;2023-09-18T03:20:41;16.70;99.90
9193;DHT22;4631;49.296;10.560;2023-09-18T03:23:09;16.70;99.90
9193;DHT22;4631;49.296;10.560;2023-09-18T03:25:36;16.60;99.90
9193;DHT22;4631;49.296;10.560;2023-09-18T03:28:03;16.60;99.90
9193;DHT22;4631;49.296;10.560;2023-09-18T03:30:30;16.60;99.90
9193;DHT22;4631;49.296;10.560;2023-09-18T03:32:57;16.60;99.90
9193;DHT22;4631;49.296;10.560;2023-09-18T03:35:23;16.60;99.90
9193;DHT22;4631;49.296;10.560;2023-09-18T03:37:50;16.60;99.90
9193;DHT22;4631;49.296;10.560;2023-09-18T03:40:19;16.60;99.90
9193;DHT22;4631;49.296;10.560;2023-09-18T03:42:45;16.60;99.90
9193;DHT22;4631;49.296;10.560;2023-09-18T03:45:12;16.70;99.90
9193;DHT22;4631;49.296;10.560;2023-09-18T03:47:39;16.60;99.90
9193;DHT22;4631;49.296;10.560;2023-09-18T03:50:07;16.70;99.90
9193;DHT22;4631;49.296;10.560;2023-09-18T03:52:33;16.60;99.90
9193;DHT22;4631;49.296;10.560;2023-09-18T03:55:00;16.60;99.90
9193;DHT22;4631;49.296;10.560;2023-09-18T03:57:28;16.50;99.90
9193;DHT22;4631;49.296;10.560;2023-09-18T03:59:55;16.40;99.90
9193;DHT22;4631;49.296;10.560;2023-09-18T04:02:21;16.30;99.90
9193;DHT22;4631;49.296;10.560;2023-09-18T04:04:48;16.40;99.90
9193;DHT22;4631;49.296;10.560;2023-09-18T04:07:15;16.40;99.90
9193;DHT22;4631;49.296;10.560;2023-09-18T04:09:42;16.40;99.90
9193;DHT22;4631;49.296;10.560;2023-09-18T04:12:08;16.40;99.90
9193;DHT22;4631;49.296;10.560;2023-09-18T04:14:36;16.40;99.90
9193;DHT22;4631;49.296;10.560;2023-09-18T04:17:03;16.50;99.90
9193;DHT22;4631;49.296;10.560;2023-09-18T04:19:30;16.50;99.90
9193;DHT22;4631;49.296;10.560;2023-09-18T04:21:56;16.60;99.90
9193;DHT22;4631;49.296;10.560;2023-09-18T04:24:23;16.60;99.90
9193;DHT22;4631;49.296;10.560;2023-09-18T04:26:50;16.60;99.90
9193;DHT22;4631;49.296;10.560;2023-09-18T04:29:17;16.70;99.90
9193;DHT22;4631;49.296;10.560;2023-09-18T04:31:45;16.70;99.90
9193;DHT22;4631;49.296;10.560;2023-09-18T04:34:12;16.70;99.90
9193;DHT22;4631;49.296;10.560;2023-09-18T04:36:39;16.70;99.90
9193;DHT22;4631;49.296;10.560;2023-09-18T04:39:07;16.70;99.90
9193;DHT22;4631;49.296;10.560;2023-09-18T04:41:35;16.70;99.90
9193;DHT22;4631;49.296;10.560;2023-09-18T04:44:01;16.70;99.90
9193;DHT22;4631;49.296;10.560;2023-09-18T04:46:30;16.70;99.90
9193;DHT22;4631;49.296;10.560;2023-09-18T04:48:58;16.60;99.90
9193;DHT22;4631;49.296;10.560;2023-09-18T04:51:24;16.60;99.90
9193;DHT22;4631;49.296;10.560;2023-09-18T04:53:51;16.60;99.90
9193;DHT22;4631;49.296;10.560;2023-09-18T04:56:20;16.60;99.90
9193;DHT22;4631;49.296;10.560;2023-09-18T04:58:46;16.60;99.90
9193;DHT22;4631;49.296;10.560;2023-09-18T05:01:13;16.60;99.90
9193;DHT22;4631;49.296;10.560;2023-09-18T05:03:40;16.60;99.90
9193;DHT22;4631;49.296;10.560;2023-09-18T05:06:08;16.70;99.90
9193;DHT22;4631;49.296;10.560;2023-09-18T05:08:35;16.70;99.90
9193;DHT22;4631;49.296;10.560;2023-09-18T05:11:01;16.70;99.90
9193;DHT22;4631;49.296;10.560;2023-09-18T05:13:28;16.80;99.90
9193;DHT22;4631;49.296;10.560;2023-09-18T05:15:54;16.80;99.90
9193;DHT22;4631;49.296;10.560;2023-09-18T05:18:21;16.80;99.90
9193;DHT22;4631;49.296;10.560;2023-09-18T05:20:48;16.90;99.90
9193;DHT22;4631;49.296;10.560;2023-09-18T05:23:16;16.90;99.90
9193;DHT22;4631;49.296;10.560;2023-09-18T05:25:43;16.90;99.90
9193;DHT22;4631;49.296;10.560;2023-09-18T05:28:10;16.90;99.90
9193;DHT22;4631;49.296;10.560;2023-09-18T05:30:37;17.00;99.90
9193;DHT22;4631;49.296;10.560;2023-09-18T05:33:05;17.00;99.90
9193;DHT22;4631;49.296;10.560;2023-09-18T05:35:32;17.00;99.90
9193;DHT22;4631;49.296;10.560;2023-09-18T05:37:59;17.00;99.90
9193;DHT22;4631;49.296;10.560;2023-09-18T05:40:27;17.00;99.90
9193;DHT22;4631;49.296;10.560;2023-09-18T05:42:55;17.00;99.90
9193;DHT22;4631;49.296;10.560;2023-09-18T05:45:22;17.00;99.90
9193;DHT22;4631;49.296;10.560;2023-09-18T05:47:48;17.00;99.90
9193;DHT22;4631;49.296;10.560;2023-09-18T05:50:15;17.00;99.90
9193;DHT22;4631;49.296;10.560;2023-09-18T05:52:42;17.00;99.90
9193;DHT22;4631;49.296;10.560;2023-09-18T05:55:09;17.00;99.90
9193;DHT22;4631;49.296;10.560;2023-09-18T05:57:37;17.00;99.90
9193;DHT22;4631;49.296;10.560;2023-09-18T06:00:04;17.10;99.90
9193;DHT22;4631;49.296;10.560;2023-09-18T06:02:31;17.10;99.90
9193;DHT22;4631;49.296;10.560;2023-09-18T06:04:58;17.10;99.90
9193;DHT22;4631;49.296;10.560;2023-09-18T06:07:25;17.20;99.90
9193;DHT22;4631;49.296;10.560;2023-09-18T06:09:52;17.30;99.90
9193;DHT22;4631;49.296;10.560;2023-09-18T06:12:19;17.30;99.90
9193;DHT22;4631;49.296;10.560;2023-09-18T06:14:47;17.30;99.90
9193;DHT22;4631;49.296;10.560;2023-09-18T06:17:14;17.40;99.90
9193;DHT22;4631;49.296;10.560;2023-09-18T06:19:41;17.40;99.90
9193;DHT22;4631;49.296;10.560;2023-09-18T06:22:07;17.50;99.90
9193;DHT22;4631;49.296;10.560;2023-09-18T06:24:34;17.60;99.90
9193;DHT22;4631;49.296;10.560;2023-09-18T06:27:01;17.60;99.90
9193;DHT22;4631;49.296;10.560;2023-09-18T06:29:26;17.70;99.90
9193;DHT22;4631;49.296;10.560;2023-09-18T06:31:54;17.70;99.90
9193;DHT22;4631;49.296;10.560;2023-09-18T06:34:21;17.80;99.90
9193;DHT22;4631;49.296;10.560;2023-09-18T06:36:47;17.80;99.90
9193;DHT22;4631;49.296;10.560;2023-09-18T06:39:14;17.90;99.90
9193;DHT22;4631;49.296;10.560;2023-09-18T06:41:41;18.00;99.90
9193;DHT22;4631;49.296;10.560;2023-09-18T06:44:08;18.00;99.90
9193;DHT22;4631;49.296;10.560;2023-09-18T06:46:35;18.10;99.90
9193;DHT22;4631;49.296;10.560;2023-09-18T06:49:03;18.20;99.90
9193;DHT22;4631;49.296;10.560;2023-09-18T06:51:30;18.30;99.90
9193;DHT22;4631;49.296;10.560;2023-09-18T06:53:56;18.40;99.90
9193;DHT22;4631;49.296;10.560;2023-09-18T06:56:23;18.50;99.90
9193;DHT22;4631;49.296;10.560;2023-09-18T06:58:50;18.60;99.90
9193;DHT22;4631;49.296;10.560;2023-09-18T07:01:17;18.70;99.90
9193;DHT22;4631;49.296;10.560;2023-09-18T07:03:44;18.80;99.90
9193;DHT22;4631;49.296;10.560;2023-09-18T07:06:13;18.90;99.90
9193;DHT22;4631;49.296;10.560;2023-09-18T07:08:41;19.00;99.90
9193;DHT22;4631;49.296;10.560;2023-09-18T07:11:08;19.20;99.90
9193;DHT22;4631;49.296;10.560;2023-09-18T07:13:34;19.20;99.90
9193;DHT22;4631;49.296;10.560;2023-09-18T07:16:01;19.30;99.90
9193;DHT22;4631;49.296;10.560;2023-09-18T07:18:29;19.30;99.90
9193;DHT22;4631;49.296;10.560;2023-09-18T07:20:56;19.40;99.90
9193;DHT22;4631;49.296;10.560;2023-09-18T07:23:23;19.50;99.90
9193;DHT22;4631;49.296;10.560;2023-09-18T07:25:50;19.60;99.90
9193;DHT22;4631;49.296;10.560;2023-09-18T07:28:17;19.70;99.90
9193;DHT22;4631;49.296;10.560;2023-09-18T07:30:44;19.90;99.90
9193;DHT22;4631;49.296;10.560;2023-09-18T07:33:11;20.00;99.90
9193;DHT22;4631;49.296;10.560;2023-09-18T07:35:38;20.10;99.90
9193;DHT22;4631;49.296;10.560;2023-09-18T07:38:05;20.20;99.90
9193;DHT22;4631;49.296;10.560;2023-09-18T07:40:34;20.20;99.90
9193;DHT22;4631;49.296;10.560;2023-09-18T07:43:01;20.30;99.90
9193;DHT22;4631;49.296;10.560;2023-09-18T07:45:27;20.40;99.90
9193;DHT22;4631;49.296;10.560;2023-09-18T07:47:54;20.40;99.90
9193;DHT22;4631;49.296;10.560;2023-09-18T07:50:21;20.60;99.90
9193;DHT22;4631;49.296;10.560;2023-09-18T07:52:47;20.70;99.90
9193;DHT22;4631;49.296;10.560;2023-09-18T07:55:14;20.70;99.90
9193;DHT22;4631;49.296;10.560;2023-09-18T07:57:42;20.70;99.90
9193;DHT22;4631;49.296;10.560;2023-09-18T08:00:11;20.80;99.90
9193;DHT22;4631;49.296;10.560;2023-09-18T08:02:38;20.90;99.90
9193;DHT22;4631;49.296;10.560;2023-09-18T08:05:05;20.90;99.90
9193;DHT22;4631;49.296;10.560;2023-09-18T08:07:32;21.00;99.90
9193;DHT22;4631;49.296;10.560;2023-09-18T08:10:00;21.10;99.90
9193;DHT22;4631;49.296;10.560;2023-09-18T08:12:27;21.10;99.90
9193;DHT22;4631;49.296;10.560;2023-09-18T08:14:55;21.20;99.90
9193;DHT22;4631;49.296;10.560;2023-09-18T08:17:24;21.30;99.90
9193;DHT22;4631;49.296;10.560;2023-09-18T08:19:50;21.40;99.90
9193;DHT22;4631;49.296;10.560;2023-09-18T08:22:18;21.50;99.90
9193;DHT22;4631;49.296;10.560;2023-09-18T08:24:46;21.60;99.90
9193;DHT22;4631;49.296;10.560;2023-09-18T08:27:13;21.60;99.90
9193;DHT22;4631;49.296;10.560;2023-09-18T08:29:42;21.70;99.90
9193;DHT22;4631;49.296;10.560;2023-09-18T08:32:10;21.70;99.90
9193;DHT22;4631;49.296;10.560;2023-09-18T08:34:36;21.90;99.90
9193;DHT22;4631;49.296;10.560;2023-09-18T08:37:03;22.00;99.90
9193;DHT22;4631;49.296;10.560;2023-09-18T08:39:30;22.10;99.90
9193;DHT22;4631;49.296;10.560;2023-09-18T08:42:00;22.10;99.90
9193;DHT22;4631;49.296;10.560;2023-09-18T08:44:29;22.20;99.90
9193;DHT22;4631;49.296;10.560;2023-09-18T08:46:55;22.30;99.90
9193;DHT22;4631;49.296;10.560;2023-09-18T08:49:24;22.40;99.90
9193;DHT22;4631;49.296;10.560;2023-09-18T08:51:50;22.50;99.90
9193;DHT22;4631;49.296;10.560;2023-09-18T08:54:17;22.60;99.90
9193;DHT22;4631;49.296;10.560;2023-09-18T08:56:44;22.60;99.90
9193;DHT22;4631;49.296;10.560;2023-09-18T08:59:10;22.70;99.90
9193;DHT22;4631;49.296;10.560;2023-09-18T09:01:39;22.80;99.90
9193;DHT22;4631;49.296;10.560;2023-09-18T09:04:05;22.90;99.90
9193;DHT22;4631;49.296;10.560;2023-09-18T09:06:33;23.00;99.90
9193;DHT22;4631;49.296;10.560;2023-09-18T09:09:01;23.00;99.90
9193;DHT22;4631;49.296;10.560;2023-09-18T09:11:28;23.20;99.90
9193;DHT22;4631;49.296;10.560;2023-09-18T09:14:08;23.20;99.90
9193;DHT22;4631;49.296;10.560;2023-09-18T09:16:35;23.20;99.90
9193;DHT22;4631;49.296;10.560;2023-09-18T09:19:01;23.30;99.90
9193;DHT22;4631;49.296;10.560;2023-09-18T09:21:39;23.30;99.90
9193;DHT22;4631;49.296;10.560;2023-09-18T09:24:05;23.40;99.90
9193;DHT22;4631;49.296;10.560;2023-09-18T09:26:32;23.40;99.90
9193;DHT22;4631;49.296;10.560;2023-09-18T09:29:13;23.40;99.90
9193;DHT22;4631;49.296;10.560;2023-09-18T09:31:40;23.40;99.90
9193;DHT22;4631;49.296;10.560;2023-09-18T09:34:07;23.30;99.90
9193;DHT22;4631;49.296;10.560;2023-09-18T09:36:34;23.30;99.90
9193;DHT22;4631;49.296;10.560;2023-09-18T09:39:02;23.30;99.90
9193;DHT22;4631;49.296;10.560;2023-09-18T09:41:30;23.20;99.90
9193;DHT22;4631;49.296;10.560;2023-09-18T09:43:59;23.20;99.90
9193;DHT22;4631;49.296;10.560;2023-09-18T09:46:25;23.20;99.90
9193;DHT22;4631;49.296;10.560;2023-09-18T09:48:59;23.20;99.90
9193;DHT22;4631;49.296;10.560;2023-09-18T09:51:26;23.20;99.90
9193;DHT22;4631;49.296;10.560;2023-09-18T09:53:53;23.20;99.90
9193;DHT22;4631;49.296;10.560;2023-09-18T09:56:21;23.20;99.90
9193;DHT22;4631;49.296;10.560;2023-09-18T09:59:00;23.30;99.90
9193;DHT22;4631;49.296;10.560;2023-09-18T10:01:29;23.40;99.90
9193;DHT22;4631;49.296;10.560;2023-09-18T10:03:57;23.40;99.90
9193;DHT22;4631;49.296;10.560;2023-09-18T10:06:25;23.40;99.90
9193;DHT22;4631;49.296;10.560;2023-09-18T10:08:54;23.40;99.90
9193;DHT22;4631;49.296;10.560;2023-09-18T10:11:22;23.40;99.90
9193;DHT22;4631;49.296;10.560;2023-09-18T10:13:51;23.30;99.90
9193;DHT22;4631;49.296;10.560;2023-09-18T10:16:20;23.40;99.90
9193;DHT22;4631;49.296;10.560;2023-09-18T10:18:54;23.40;99.90
9193;DHT22;4631;49.296;10.560;2023-09-18T10:21:24;23.40;99.90
9193;DHT22;4631;49.296;10.560;2023-09-18T10:23:59;23.40;99.90
9193;DHT22;4631;49.296;10.560;2023-09-18T10:26:27;23.40;99.90
9193;DHT22;4631;49.296;10.560;2023-09-18T10:28:55;23.40;99.90
9193;DHT22;4631;49.296;10.560;2023-09-18T10:31:23;23.40;99.90
9193;DHT22;4631;49.296;10.560;2023-09-18T10:33:51;23.40;99.90
9193;DHT22;4631;49.296;10.560;2023-09-18T10:36:18;23.30;99.90
9193;DHT22;4631;49.296;10.560;2023-09-18T10:38:46;23.30;99.90
9193;DHT22;4631;49.296;10.560;2023-09-18T10:41:15;23.20;99.90
9193;DHT22;4631;49.296;10.560;2023-09-18T10:43:44;23.20;99.90
9193;DHT22;4631;49.296;10.560;2023-09-18T10:46:11;23.20;99.90
9193;DHT22;4631;49.296;10.560;2023-09-18T10:48:39;23.10;99.90
9193;DHT22;4631;49.296;10.560;2023-09-18T10:51:06;23.10;99.90
9193;DHT22;4631;49.296;10.560;2023-09-18T10:53:33;23.10;99.90
9193;DHT22;4631;49.296;10.560;2023-09-18T10:56:00;23.10;99.90
9193;DHT22;4631;49.296;10.560;2023-09-18T10:58:29;23.10;99.90
9193;DHT22;4631;49.296;10.560;2023-09-18T11:00:58;23.10;99.90
9193;DHT22;4631;49.296;10.560;2023-09-18T11:03:25;23.10;99.90
9193;DHT22;4631;49.296;10.560;2023-09-18T11:06:02;23.00;99.90
9193;DHT22;4631;49.296;10.560;2023-09-18T11:08:29;23.00;99.90
9193;DHT22;4631;49.296;10.560;2023-09-18T11:10:59;23.00;99.90
9193;DHT22;4631;49.296;10.560;2023-09-18T11:13:34;22.90;99.90
9193;DHT22;4631;49.296;10.560;2023-09-18T11:16:03;22.90;99.90
9193;DHT22;4631;49.296;10.560;2023-09-18T11:18:39;22.80;99.90
9193;DHT22;4631;49.296;10.560;2023-09-18T11:21:09;22.80;99.90
9193;DHT22;4631;49.296;10.560;2023-09-18T11:23:36;22.70;99.90
9193;DHT22;4631;49.296;10.560;2023-09-18T11:26:07;22.60;99.90
9193;DHT22;4631;49.296;10.560;2023-09-18T11:28:33;22.60;99.90
9193;DHT22;4631;49.296;10.560;2023-09-18T11:31:00;22.40;99.90
9193;DHT22;4631;49.296;10.560;2023-09-18T11:33:35;22.30;99.90
9193;DHT22;4631;49.296;10.560;2023-09-18T11:36:04;22.20;99.90
9193;DHT22;4631;49.296;10.560;2023-09-18T11:38:34;22.00;99.90
9193;DHT22;4631;49.296;10.560;2023-09-18T11:41:14;21.80;99.90
9193;DHT22;4631;49.296;10.560;2023-09-18T11:43:45;21.60;99.90
9193;DHT22;4631;49.296;10.560;2023-09-18T11:46:12;21.30;99.90
9193;DHT22;4631;49.296;10.560;2023-09-18T11:48:45;21.10;99.90
9193;DHT22;4631;49.296;10.560;2023-09-18T11:51:20;20.90;99.90
9193;DHT22;4631;49.296;10.560;2023-09-18T11:53:46;20.70;99.90
9193;DHT22;4631;49.296;10.560;2023-09-18T11:56:13;20.50;99.90
9193;DHT22;4631;49.296;10.560;2023-09-18T11:58:46;20.40;99.90
9193;DHT22;4631;49.296;10.560;2023-09-18T12:01:12;20.30;99.90
9193;DHT22;4631;49.296;10.560;2023-09-18T12:03:40;20.20;99.90
9193;DHT22;4631;49.296;10.560;2023-09-18T12:06:08;20.00;99.90
9193;DHT22;4631;49.296;10.560;2023-09-18T12:08:38;19.90;99.90
9193;DHT22;4631;49.296;10.560;2023-09-18T12:11:05;19.90;99.90
9193;DHT22;4631;49.296;10.560;2023-09-18T12:13:32;19.70;99.90
9193;DHT22;4631;49.296;10.560;2023-09-18T12:15:59;19.70;99.90
9193;DHT22;4631;49.296;10.560;2023-09-18T12:18:27;19.70;99.90
9193;DHT22;4631;49.296;10.560;2023-09-18T12:20:54;19.70;99.90
9193;DHT22;4631;49.296;10.560;2023-09-18T12:23:25;19.70;99.90
9193;DHT22;4631;49.296;10.560;2023-09-18T12:25:56;19.60;99.90
9193;DHT22;4631;49.296;10.560;2023-09-18T12:28:25;19.50;99.90
9193;DHT22;4631;49.296;10.560;2023-09-18T12:30:53;19.40;99.90
9193;DHT22;4631;49.296;10.560;2023-09-18T12:33:21;19.30;99.90
9193;DHT22;4631;49.296;10.560;2023-09-18T12:35:49;19.30;99.90
9193;DHT22;4631;49.296;10.560;2023-09-18T12:38:16;19.30;99.90
9193;DHT22;4631;49.296;10.560;2023-09-18T12:40:46;19.30;99.90
9193;DHT22;4631;49.296;10.560;2023-09-18T12:43:13;19.30;99.90
9193;DHT22;4631;49.296;10.560;2023-09-18T12:45:41;19.30;99.90
9193;DHT22;4631;49.296;10.560;2023-09-18T12:48:07;19.30;99.90
9193;DHT22;4631;49.296;10.560;2023-09-18T12:50:35;19.30;99.90
9193;DHT22;4631;49.296;10.560;2023-09-18T12:53:08;19.20;99.90
9193;DHT22;4631;49.296;10.560;2023-09-18T12:55:35;19.10;99.90
9193;DHT22;4631;49.296;10.560;2023-09-18T12:58:04;19.10;99.90
9193;DHT22;4631;49.296;10.560;2023-09-18T13:00:33;19.00;99.90
9193;DHT22;4631;49.296;10.560;2023-09-18T13:03:00;19.00;99.90
9193;DHT22;4631;49.296;10.560;2023-09-18T13:05:29;19.00;99.90
9193;DHT22;4631;49.296;10.560;2023-09-18T13:08:01;18.90;99.90
9193;DHT22;4631;49.296;10.560;2023-09-18T13:10:28;18.90;99.90
9193;DHT22;4631;49.296;10.560;2023-09-18T13:12:55;18.90;99.90
9193;DHT22;4631;49.296;10.560;2023-09-18T13:15:26;18.80;99.90
9193;DHT22;4631;49.296;10.560;2023-09-18T13:17:54;18.80;99.90
9193;DHT22;4631;49.296;10.560;2023-09-18T13:20:21;18.70;99.90
9193;DHT22;4631;49.296;10.560;2023-09-18T13:22:49;18.70;99.90
9193;DHT22;4631;49.296;10.560;2023-09-18T13:25:19;18.70;99.90
9193;DHT22;4631;49.296;10.560;2023-09-18T13:27:47;18.60;99.90
9193;DHT22;4631;49.296;10.560;2023-09-18T13:30:13;18.60;99.90
9193;DHT22;4631;49.296;10.560;2023-09-18T13:32:44;18.60;99.90
9193;DHT22;4631;49.296;10.560;2023-09-18T13:35:10;18.60;99.90
9193;DHT22;4631;49.296;10.560;2023-09-18T13:37:39;18.60;99.90
9193;DHT22;4631;49.296;10.560;2023-09-18T13:40:06;18.60;99.90
9193;DHT22;4631;49.296;10.560;2023-09-18T13:42:34;18.60;99.90
9193;DHT22;4631;49.296;10.560;2023-09-18T13:45:00;18.50;99.90
9193;DHT22;4631;49.296;10.560;2023-09-18T13:47:30;18.50;99.90
9193;DHT22;4631;49.296;10.560;2023-09-18T13:49:58;18.40;99.90
9193;DHT22;4631;49.296;10.560;2023-09-18T13:52:25;18.50;99.90
9193;DHT22;4631;49.296;10.560;2023-09-18T13:54:51;18.40;99.90
9193;DHT22;4631;49.296;10.560;2023-09-18T13:57:18;18.30;99.90
9193;DHT22;4631;49.296;10.560;2023-09-18T13:59:46;18.30;99.90
9193;DHT22;4631;49.296;10.560;2023-09-18T14:02:14;18.20;99.90
9193;DHT22;4631;49.296;10.560;2023-09-18T14:04:40;18.20;99.90
9193;DHT22;4631;49.296;10.560;2023-09-18T14:07:09;18.20;99.90
9193;DHT22;4631;49.296;10.560;2023-09-18T14:09:36;18.20;99.90
9193;DHT22;4631;49.296;10.560;2023-09-18T14:12:03;18.20;99.90
9193;DHT22;4631;49.296;10.560;2023-09-18T14:14:30;18.20;99.90
9193;DHT22;4631;49.296;10.560;2023-09-18T14:16:57;18.20;99.90
9193;DHT22;4631;49.296;10.560;2023-09-18T14:19:24;18.10;99.90
9193;DHT22;4631;49.296;10.560;2023-09-18T14:21:51;18.20;99.90
9193;DHT22;4631;49.296;10.560;2023-09-18T14:24:19;18.20;99.90
9193;DHT22;4631;49.296;10.560;2023-09-18T14:26:49;18.20;99.90
9193;DHT22;4631;49.296;10.560;2023-09-18T14:29:16;18.30;99.90
9193;DHT22;4631;49.296;10.560;2023-09-18T14:31:43;18.30;99.90
9193;DHT22;4631;49.296;10.560;2023-09-18T14:34:09;18.30;99.90
9193;DHT22;4631;49.296;10.560;2023-09-18T14:36:36;18.30;99.90
9193;DHT22;4631;49.296;10.560;2023-09-18T14:39:04;18.20;99.90
9193;DHT22;4631;49.296;10.560;2023-09-18T14:41:34;18.20;99.90
9193;DHT22;4631;49.296;10.560;2023-09-18T14:44:01;18.10;99.90
9193;DHT22;4631;49.296;10.560;2023-09-18T14:46:29;18.20;99.90
9193;DHT22;4631;49.296;10.560;2023-09-18T14:48:55;18.10;99.90
9193;DHT22;4631;49.296;10.560;2023-09-18T14:51:22;18.10;99.90
9193;DHT22;4631;49.296;10.560;2023-09-18T14:53:48;18.10;99.90
9193;DHT22;4631;49.296;10.560;2023-09-18T14:56:15;18.10;99.90
9193;DHT22;4631;49.296;10.560;2023-09-18T14:58:43;18.20;99.90
9193;DHT22;4631;49.296;10.560;2023-09-18T15:01:10;18.30;99.90
9193;DHT22;4631;49.296;10.560;2023-09-18T15:03:37;18.40;99.90
9193;DHT22;4631;49.296;10.560;2023-09-18T15:06:03;18.40;99.90
9193;DHT22;4631;49.296;10.560;2023-09-18T15:08:32;18.50;99.90
9193;DHT22;4631;49.296;10.560;2023-09-18T15:10:59;18.50;99.90
9193;DHT22;4631;49.296;10.560;2023-09-18T15:13:26;18.50;99.90
9193;DHT22;4631;49.296;10.560;2023-09-18T15:15:54;18.50;99.90
9193;DHT22;4631;49.296;10.560;2023-09-18T15:18:20;18.40;99.90
9193;DHT22;4631;49.296;10.560;2023-09-18T15:20:47;18.40;99.90
9193;DHT22;4631;49.296;10.560;2023-09-18T15:23:19;18.30;99.90
9193;DHT22;4631;49.296;10.560;2023-09-18T15:25:47;18.30;99.90
9193;DHT22;4631;49.296;10.560;2023-09-18T15:28:14;18.20;99.90
9193;DHT22;4631;49.296;10.560;2023-09-18T15:30:41;18.30;99.90
9193;DHT22;4631;49.296;10.560;2023-09-18T15:33:09;18.40;99.90
9193;DHT22;4631;49.296;10.560;2023-09-18T15:35:37;18.40;99.90
9193;DHT22;4631;49.296;10.560;2023-09-18T15:38:04;18.40;99.90
9193;DHT22;4631;49.296;10.560;2023-09-18T15:40:31;18.50;99.90
9193;DHT22;4631;49.296;10.560;2023-09-18T15:42:59;18.60;99.90
9193;DHT22;4631;49.296;10.560;2023-09-18T15:45:25;18.60;99.90
9193;DHT22;4631;49.296;10.560;2023-09-18T15:47:52;18.70;99.90